sensor_id;sensor_type;location;lat;lon;timestamp;temperature;humidity
4374;DHT22;2201;51.100;6.814;2024-03-22T00:01:01;11.60;98.20
4374;DHT22;2201;51.100;6.814;2024-03-22T00:03:27;11.60;98.20
4374;DHT22;2201;51.100;6.814;2024-03-22T00:05:56;11.60;98.20
4374;DHT22;2201;51.100;6.814;2024-03-22T00:08:22;11.60;98.20
4374;DHT22;2201;51.100;6.814;2024-03-22T00:10:49;11.50;98.20
4374;DHT22;2201;51.100;6.814;2024-03-22T00:13:15;11.50;98.20
4374;DHT22;2201;51.100;6.814;2024-03-22T00:15:41;11.50;98.20
4374;DHT22;2201;51.100;6.814;2024-03-22T00:18:09;11.50;98.20
4374;DHT22;2201;51.100;6.814;2024-03-22T00:20:36;11.50;98.20
4374;DHT22;2201;51.100;6.814;2024-03-22T00:23:03;11.50;98.20
4374;DHT22;2201;51.100;6.814;2024-03-22T00:25:31;11.50;98.20
4374;DHT22;2201;51.100;6.814;2024-03-22T00:27:57;11.50;98.20
4374;DHT22;2201;51.100;6.814;2024-03-22T00:30:23;11.40;98.20
4374;DHT22;2201;51.100;6.814;2024-03-22T00:32:49;11.40;98.20
4374;DHT22;2201;51.100;6.814;2024-03-22T00:35:16;11.40;98.20
4374;DHT22;2201;51.100;6.814;2024-03-22T00:37:42;11.40;98.20
4374;DHT22;2201;51.100;6.814;2024-03-22T00:40:11;11.40;98.20
4374;DHT22;2201;51.100;6.814;2024-03-22T00:42:37;11.40;98.20
4374;DHT22;2201;51.100;6.814;2024-03-22T00:45:04;11.40;98.20
4374;DHT22;2201;51.100;6.814;2024-03-22T00:47:30;11.40;98.20
4374;DHT22;2201;51.100;6.814;2024-03-22T00:49:57;11.50;98.20
4374;DHT22;2201;51.100;6.814;2024-03-22T00:52:24;11.50;98.20
4374;DHT22;2201;51.100;6.814;2024-03-22T00:54:50;11.50;98.20
4374;DHT22;2201;51.100;6.814;2024-03-22T00:57:18;11.50;98.20
4374;DHT22;2201;51.100;6.814;2024-03-22T00:59:45;11.50;98.20
4374;DHT22;2201;51.100;6.814;2024-03-22T01:02:10;11.50;98.20
4374;DHT22;2201;51.100;6.814;2024-03-22T01:04:37;11.50;98.20
4374;DHT22;2201;51.100;6.814;2024-03-22T01:07:03;11.50;98.20
4374;DHT22;2201;51.100;6.814;2024-03-22T01:09:30;11.50;98.20
4374;DHT22;2201;51.100;6.814;2024-03-22T01:11:56;11.50;98.20
4374;DHT22;2201;51.100;6.814;2024-03-22T01:14:24;11.50;98.20
4374;DHT22;2201;51.100;6.814;2024-03-22T01:16:50;11.50;98.20
4374;DHT22;2201;51.100;6.814;2024-03-22T01:19:17;11.50;98.20
4374;DHT22;2201;51.100;6.814;2024-03-22T01:21:42;11.60;98.20
4374;DHT22;2201;51.100;6.814;2024-03-22T01:24:09;11.60;98.20
4374;DHT22;2201;51.100;6.814;2024-03-22T01:26:35;11.60;98.20
4374;DHT22;2201;51.100;6.814;2024-03-22T01:29:02;11.60;98.20
4374;DHT22;2201;51.100;6.814;2024-03-22T01:31:29;11.60;98.20
4374;DHT22;2201;51.100;6.814;2024-03-22T01:33:56;11.60;98.20
4374;DHT22;2201;51.100;6.814;2024-03-22T01:36:21;11.60;98.20
4374;DHT22;2201;51.100;6.814;2024-03-22T01:38:48;11.60;98.20
4374;DHT22;2201;51.100;6.814;2024-03-22T01:41:14;11.60;98.20
4374;DHT22;2201;51.100;6.814;2024-03-22T01:43:41;11.60;98.20
4374;DHT22;2201;51.100;6.814;2024-03-22T01:46:07;11.60;98.20
4374;DHT22;2201;51.100;6.814;2024-03-22T01:48:36;11.60;98.20
4374;DHT22;2201;51.100;6.814;2024-03-22T01:51:02;11.60;98.20
4374;DHT22;2201;51.100;6.814;2024-03-22T01:53:30;11.50;98.20
4374;DHT22;2201;51.100;6.814;2024-03-22T01:55:56;11.60;98.20
4374;DHT22;2201;51.100;6.814;2024-03-22T01:58:23;11.50;98.20
4374;DHT22;2201;51.100;6.814;2024-03-22T02:00:49;11.50;98.20
4374;DHT22;2201;51.100;6.814;2024-03-22T02:03:16;11.50;98.20
4374;DHT22;2201;51.100;6.814;2024-03-22T02:05:43;11.50;98.20
4374;DHT22;2201;51.100;6.814;2024-03-22T02:08:10;11.50;98.20
4374;DHT22;2201;51.100;6.814;2024-03-22T02:10:36;11.50;98.20
4374;DHT22;2201;51.100;6.814;2024-03-22T02:13:03;11.50;98.20
4374;DHT22;2201;51.100;6.814;2024-03-22T02:15:28;11.50;98.20
4374;DHT22;2201;51.100;6.814;2024-03-22T02:17:55;11.50;98.20
4374;DHT22;2201;51.100;6.814;2024-03-22T02:20:21;11.50;98.20
4374;DHT22;2201;51.100;6.814;2024-03-22T02:22:49;11.50;98.20
4374;DHT22;2201;51.100;6.814;2024-03-22T02:25:16;11.50;98.20
4374;DHT22;2201;51.100;6.814;2024-03-22T02:27:43;11.50;98.20
4374;DHT22;2201;51.100;6.814;2024-03-22T02:30:09;11.50;98.20
4374;DHT22;2201;51.100;6.814;2024-03-22T02:32:36;11.50;98.20
4374;DHT22;2201;51.100;6.814;2024-03-22T02:35:03;11.50;98.20
4374;DHT22;2201;51.100;6.814;2024-03-22T02:37:30;11.50;98.20
4374;DHT22;2201;51.100;6.814;2024-03-22T02:39:57;11.50;98.20
4374;DHT22;2201;51.100;6.814;2024-03-22T02:42:25;11.50;98.20
4374;DHT22;2201;51.100;6.814;2024-03-22T02:44:51;11.50;98.20
4374;DHT22;2201;51.100;6.814;2024-03-22T02:47:18;11.50;98.20
4374;DHT22;2201;51.100;6.814;2024-03-22T02:49:44;11.50;98.20
4374;DHT22;2201;51.100;6.814;2024-03-22T02:52:11;11.50;98.20
4374;DHT22;2201;51.100;6.814;2024-03-22T02:54:37;11.50;98.20
4374;DHT22;2201;51.100;6.814;2024-03-22T02:57:04;11.50;98.20
4374;DHT22;2201;51.100;6.814;2024-03-22T02:59:31;11.60;98.20
4374;DHT22;2201;51.100;6.814;2024-03-22T03:01:58;11.50;98.20
4374;DHT22;2201;51.100;6.814;2024-03-22T03:04:24;11.50;98.20
4374;DHT22;2201;51.100;6.814;2024-03-22T03:06:50;11.50;98.20
4374;DHT22;2201;51.100;6.814;2024-03-22T03:09:16;11.50;98.20
4374;DHT22;2201;51.100;6.814;2024-03-22T03:11:43;11.50;98.20
4374;DHT22;2201;51.100;6.814;2024-03-22T03:14:09;11.50;98.20
4374;DHT22;2201;51.100;6.814;2024-03-22T03:16:37;11.50;98.20
4374;DHT22;2201;51.100;6.814;2024-03-22T03:19:03;11.50;98.20
4374;DHT22;2201;51.100;6.814;2024-03-22T03:21:30;11.50;98.20
4374;DHT22;2201;51.100;6.814;2024-03-22T03:23:56;11.40;98.20
4374;DHT22;2201;51.100;6.814;2024-03-22T03:26:22;11.40;98.20
4374;DHT22;2201;51.100;6.814;2024-03-22T03:28:48;11.40;98.20
4374;DHT22;2201;51.100;6.814;2024-03-22T03:31:15;11.40;98.20
4374;DHT22;2201;51.100;6.814;2024-03-22T03:33:42;11.40;98.20
4374;DHT22;2201;51.100;6.814;2024-03-22T03:36:09;11.30;98.20
4374;DHT22;2201;51.100;6.814;2024-03-22T03:38:35;11.30;98.20
4374;DHT22;2201;51.100;6.814;2024-03-22T03:41:03;11.30;98.20
4374;DHT22;2201;51.100;6.814;2024-03-22T03:43:29;11.20;98.20
4374;DHT22;2201;51.100;6.814;2024-03-22T03:45:55;11.20;98.20
4374;DHT22;2201;51.100;6.814;2024-03-22T03:48:21;11.20;98.20
4374;DHT22;2201;51.100;6.814;2024-03-22T03:50:54;11.20;98.20
4374;DHT22;2201;51.100;6.814;2024-03-22T03:53:20;11.20;98.20
4374;DHT22;2201;51.100;6.814;2024-03-22T03:55:47;11.20;98.20
4374;DHT22;2201;51.100;6.814;2024-03-22T03:58:13;11.20;98.20
4374;DHT22;2201;51.100;6.814;2024-03-22T04:00:40;11.20;98.20
4374;DHT22;2201;51.100;6.814;2024-03-22T04:03:05;11.20;98.20
4374;DHT22;2201;51.100;6.814;2024-03-22T04:05:32;11.20;98.20
4374;DHT22;2201;51.100;6.814;2024-03-22T04:07:59;11.10;98.20
4374;DHT22;2201;51.100;6.814;2024-03-22T04:10:26;11.10;98.20
4374;DHT22;2201;51.100;6.814;2024-03-22T04:12:52;11.10;98.20
4374;DHT22;2201;51.100;6.814;2024-03-22T04:15:19;11.00;98.20
4374;DHT22;2201;51.100;6.814;2024-03-22T04:17:44;11.00;98.20
4374;DHT22;2201;51.100;6.814;2024-03-22T04:20:11;11.00;98.20
4374;DHT22;2201;51.100;6.814;2024-03-22T04:22:37;10.90;98.20
4374;DHT22;2201;51.100;6.814;2024-03-22T04:25:06;10.90;98.20
4374;DHT22;2201;51.100;6.814;2024-03-22T04:27:36;10.90;98.20
4374;DHT22;2201;51.100;6.814;2024-03-22T04:30:03;10.80;98.20
4374;DHT22;2201;51.100;6.814;2024-03-22T04:32:29;10.80;98.20
4374;DHT22;2201;51.100;6.814;2024-03-22T04:34:56;10.80;98.20
4374;DHT22;2201;51.100;6.814;2024-03-22T04:37:21;10.80;98.20
4374;DHT22;2201;51.100;6.814;2024-03-22T04:39:49;10.80;98.20
4374;DHT22;2201;51.100;6.814;2024-03-22T04:42:17;10.70;98.20
4374;DHT22;2201;51.100;6.814;2024-03-22T04:44:45;10.70;98.20
4374;DHT22;2201;51.100;6.814;2024-03-22T04:47:12;10.70;98.20
4374;DHT22;2201;51.100;6.814;2024-03-22T04:49:37;10.70;98.20
4374;DHT22;2201;51.100;6.814;2024-03-22T04:52:05;10.70;98.20
4374;DHT22;2201;51.100;6.814;2024-03-22T04:54:30;10.70;98.20
4374;DHT22;2201;51.100;6.814;2024-03-22T04:56:57;10.70;98.20
4374;DHT22;2201;51.100;6.814;2024-03-22T04:59:24;10.70;98.20
4374;DHT22;2201;51.100;6.814;2024-03-22T05:01:51;10.80;98.20
4374;DHT22;2201;51.100;6.814;2024-03-22T05:04:17;10.80;98.20
4374;DHT22;2201;51.100;6.814;2024-03-22T05:06:44;10.80;98.20
4374;DHT22;2201;51.100;6.814;2024-03-22T05:09:10;10.80;98.20
4374;DHT22;2201;51.100;6.814;2024-03-22T05:11:37;10.90;98.20
4374;DHT22;2201;51.100;6.814;2024-03-22T05:14:03;10.90;98.20
4374;DHT22;2201;51.100;6.814;2024-03-22T05:16:31;10.90;98.20
4374;DHT22;2201;51.100;6.814;2024-03-22T05:18:56;10.90;98.20
4374;DHT22;2201;51.100;6.814;2024-03-22T05:21:23;11.00;98.20
4374;DHT22;2201;51.100;6.814;2024-03-22T05:23:49;11.00;98.20
4374;DHT22;2201;51.100;6.814;2024-03-22T05:26:16;11.00;98.20
4374;DHT22;2201;51.100;6.814;2024-03-22T05:28:43;11.00;98.20
4374;DHT22;2201;51.100;6.814;2024-03-22T05:31:10;11.10;98.20
4374;DHT22;2201;51.100;6.814;2024-03-22T05:33:37;11.10;98.20
4374;DHT22;2201;51.100;6.814;2024-03-22T05:36:05;11.10;98.20
4374;DHT22;2201;51.100;6.814;2024-03-22T05:38:31;11.10;98.20
4374;DHT22;2201;51.100;6.814;2024-03-22T05:40:57;11.10;98.20
4374;DHT22;2201;51.100;6.814;2024-03-22T05:43:23;11.10;98.20
4374;DHT22;2201;51.100;6.814;2024-03-22T05:45:50;11.10;98.20
4374;DHT22;2201;51.100;6.814;2024-03-22T05:48:16;11.10;98.20
4374;DHT22;2201;51.100;6.814;2024-03-22T05:50:44;11.10;98.20
4374;DHT22;2201;51.100;6.814;2024-03-22T05:53:10;11.10;98.20
4374;DHT22;2201;51.100;6.814;2024-03-22T05:55:37;11.20;98.20
4374;DHT22;2201;51.100;6.814;2024-03-22T05:58:04;11.20;98.20
4374;DHT22;2201;51.100;6.814;2024-03-22T06:00:31;11.20;98.20
4374;DHT22;2201;51.100;6.814;2024-03-22T06:02:57;11.30;98.20
4374;DHT22;2201;51.100;6.814;2024-03-22T06:05:24;11.30;98.20
4374;DHT22;2201;51.100;6.814;2024-03-22T06:07:51;11.40;98.20
4374;DHT22;2201;51.100;6.814;2024-03-22T06:10:17;11.40;98.20
4374;DHT22;2201;51.100;6.814;2024-03-22T06:12:43;11.50;98.20
4374;DHT22;2201;51.100;6.814;2024-03-22T06:15:12;11.50;98.20
4374;DHT22;2201;51.100;6.814;2024-03-22T06:17:38;11.60;98.20
4374;DHT22;2201;51.100;6.814;2024-03-22T06:20:06;11.60;98.20
4374;DHT22;2201;51.100;6.814;2024-03-22T06:22:32;11.60;98.20
4374;DHT22;2201;51.100;6.814;2024-03-22T06:25:00;11.70;98.20
4374;DHT22;2201;51.100;6.814;2024-03-22T06:27:26;11.70;98.20
4374;DHT22;2201;51.100;6.814;2024-03-22T06:29:53;11.80;98.20
4374;DHT22;2201;51.100;6.814;2024-03-22T06:32:18;11.80;98.20
4374;DHT22;2201;51.100;6.814;2024-03-22T06:34:48;11.90;98.20
4374;DHT22;2201;51.100;6.814;2024-03-22T06:37:20;12.00;98.20
4374;DHT22;2201;51.100;6.814;2024-03-22T06:39:47;12.10;98.20
4374;DHT22;2201;51.100;6.814;2024-03-22T06:42:14;12.20;98.20
4374;DHT22;2201;51.100;6.814;2024-03-22T06:44:41;12.40;98.20
4374;DHT22;2201;51.100;6.814;2024-03-22T06:47:07;12.50;98.20
4374;DHT22;2201;51.100;6.814;2024-03-22T06:49:34;12.60;98.20
4374;DHT22;2201;51.100;6.814;2024-03-22T06:51:59;12.70;98.20
4374;DHT22;2201;51.100;6.814;2024-03-22T06:54:26;12.80;98.20
4374;DHT22;2201;51.100;6.814;2024-03-22T06:56:52;12.90;98.20
4374;DHT22;2201;51.100;6.814;2024-03-22T06:59:20;13.00;98.20
4374;DHT22;2201;51.100;6.814;2024-03-22T07:01:46;13.10;98.20
4374;DHT22;2201;51.100;6.814;2024-03-22T07:04:13;13.20;98.20
4374;DHT22;2201;51.100;6.814;2024-03-22T07:06:39;13.30;98.20
4374;DHT22;2201;51.100;6.814;2024-03-22T07:09:07;13.40;98.20
4374;DHT22;2201;51.100;6.814;2024-03-22T07:11:33;13.50;98.20
4374;DHT22;2201;51.100;6.814;2024-03-22T07:14:00;13.70;98.20
4374;DHT22;2201;51.100;6.814;2024-03-22T07:16:27;13.80;98.20
4374;DHT22;2201;51.100;6.814;2024-03-22T07:18:54;13.90;98.20
4374;DHT22;2201;51.100;6.814;2024-03-22T07:21:20;14.00;98.20
4374;DHT22;2201;51.100;6.814;2024-03-22T07:23:46;14.10;98.20
4374;DHT22;2201;51.100;6.814;2024-03-22T07:26:12;14.10;98.20
4374;DHT22;2201;51.100;6.814;2024-03-22T07:28:39;14.10;98.20
4374;DHT22;2201;51.100;6.814;2024-03-22T07:31:05;14.10;98.20
4374;DHT22;2201;51.100;6.814;2024-03-22T07:33:33;14.10;98.20
4374;DHT22;2201;51.100;6.814;2024-03-22T07:36:01;14.10;98.20
4374;DHT22;2201;51.100;6.814;2024-03-22T07:38:28;14.20;98.20
4374;DHT22;2201;51.100;6.814;2024-03-22T07:40:54;14.20;98.20
4374;DHT22;2201;51.100;6.814;2024-03-22T07:43:21;14.30;98.20
4374;DHT22;2201;51.100;6.814;2024-03-22T07:45:47;14.40;98.20
4374;DHT22;2201;51.100;6.814;2024-03-22T07:48:14;14.50;98.20
4374;DHT22;2201;51.100;6.814;2024-03-22T07:50:41;14.50;98.20
4374;DHT22;2201;51.100;6.814;2024-03-22T07:53:08;14.60;98.20
4374;DHT22;2201;51.100;6.814;2024-03-22T07:55:34;14.70;98.20
4374;DHT22;2201;51.100;6.814;2024-03-22T07:58:01;14.80;98.20
4374;DHT22;2201;51.100;6.814;2024-03-22T08:00:28;14.90;98.20
4374;DHT22;2201;51.100;6.814;2024-03-22T08:02:55;15.00;98.20
4374;DHT22;2201;51.100;6.814;2024-03-22T08:05:20;15.10;98.20
4374;DHT22;2201;51.100;6.814;2024-03-22T08:07:49;15.20;98.20
4374;DHT22;2201;51.100;6.814;2024-03-22T08:10:15;15.30;98.20
4374;DHT22;2201;51.100;6.814;2024-03-22T08:12:42;15.40;98.20
4374;DHT22;2201;51.100;6.814;2024-03-22T08:15:08;15.50;98.20
4374;DHT22;2201;51.100;6.814;2024-03-22T08:17:35;15.60;98.20
4374;DHT22;2201;51.100;6.814;2024-03-22T08:20:01;15.80;98.20
4374;DHT22;2201;51.100;6.814;2024-03-22T08:22:28;15.90;98.20
4374;DHT22;2201;51.100;6.814;2024-03-22T08:24:55;16.00;98.20
4374;DHT22;2201;51.100;6.814;2024-03-22T08:27:22;16.10;98.20
4374;DHT22;2201;51.100;6.814;2024-03-22T08:29:48;16.10;98.20
4374;DHT22;2201;51.100;6.814;2024-03-22T08:32:15;16.10;98.20
4374;DHT22;2201;51.100;6.814;2024-03-22T08:34:41;16.20;98.20
4374;DHT22;2201;51.100;6.814;2024-03-22T08:37:08;16.20;98.20
4374;DHT22;2201;51.100;6.814;2024-03-22T08:39:34;16.10;98.20
4374;DHT22;2201;51.100;6.814;2024-03-22T08:42:03;16.20;98.20
4374;DHT22;2201;51.100;6.814;2024-03-22T08:44:30;16.10;98.20
4374;DHT22;2201;51.100;6.814;2024-03-22T08:46:57;16.10;98.20
4374;DHT22;2201;51.100;6.814;2024-03-22T08:49:23;16.10;98.20
4374;DHT22;2201;51.100;6.814;2024-03-22T08:51:50;16.10;98.20
4374;DHT22;2201;51.100;6.814;2024-03-22T08:54:16;16.20;98.20
4374;DHT22;2201;51.100;6.814;2024-03-22T08:56:43;16.20;98.20
4374;DHT22;2201;51.100;6.814;2024-03-22T08:59:11;16.30;98.20
4374;DHT22;2201;51.100;6.814;2024-03-22T09:01:37;16.50;98.20
4374;DHT22;2201;51.100;6.814;2024-03-22T09:04:03;16.60;98.20
4374;DHT22;2201;51.100;6.814;2024-03-22T09:06:30;16.70;98.20
4374;DHT22;2201;51.100;6.814;2024-03-22T09:08:56;16.80;98.20
4374;DHT22;2201;51.100;6.814;2024-03-22T09:11:23;16.80;98.20
4374;DHT22;2201;51.100;6.814;2024-03-22T09:13:51;16.90;98.20
4374;DHT22;2201;51.100;6.814;2024-03-22T09:16:20;16.90;98.20
4374;DHT22;2201;51.100;6.814;2024-03-22T09:18:46;17.00;98.20
4374;DHT22;2201;51.100;6.814;2024-03-22T09:21:12;17.10;98.20
4374;DHT22;2201;51.100;6.814;2024-03-22T09:23:38;17.20;98.20
4374;DHT22;2201;51.100;6.814;2024-03-22T09:26:05;17.20;98.20
4374;DHT22;2201;51.100;6.814;2024-03-22T09:28:31;17.20;98.20
4374;DHT22;2201;51.100;6.814;2024-03-22T09:31:03;17.30;98.20
4374;DHT22;2201;51.100;6.814;2024-03-22T09:33:30;17.30;98.20
4374;DHT22;2201;51.100;6.814;2024-03-22T09:35:57;17.30;98.20
4374;DHT22;2201;51.100;6.814;2024-03-22T09:38:24;17.30;98.20
4374;DHT22;2201;51.100;6.814;2024-03-22T09:40:51;17.40;98.20
4374;DHT22;2201;51.100;6.814;2024-03-22T09:43:20;17.40;98.20
4374;DHT22;2201;51.100;6.814;2024-03-22T09:45:48;17.50;98.20
4374;DHT22;2201;51.100;6.814;2024-03-22T09:48:15;17.50;98.20
4374;DHT22;2201;51.100;6.814;2024-03-22T09:50:46;17.50;98.20
4374;DHT22;2201;51.100;6.814;2024-03-22T09:53:13;17.60;98.20
4374;DHT22;2201;51.100;6.814;2024-03-22T09:55:40;17.70;98.20
4374;DHT22;2201;51.100;6.814;2024-03-22T09:58:08;17.80;98.20
4374;DHT22;2201;51.100;6.814;2024-03-22T10:00:36;17.90;98.20
4374;DHT22;2201;51.100;6.814;2024-03-22T10:03:04;18.00;98.20
4374;DHT22;2201;51.100;6.814;2024-03-22T10:05:31;18.00;98.20
4374;DHT22;2201;51.100;6.814;2024-03-22T10:07:58;18.00;98.20
4374;DHT22;2201;51.100;6.814;2024-03-22T10:10:26;17.90;98.20
4374;DHT22;2201;51.100;6.814;2024-03-22T10:12:52;17.80;98.20
4374;DHT22;2201;51.100;6.814;2024-03-22T10:15:19;17.80;98.20
4374;DHT22;2201;51.100;6.814;2024-03-22T10:17:45;17.70;98.20
4374;DHT22;2201;51.100;6.814;2024-03-22T10:20:13;17.60;98.20
4374;DHT22;2201;51.100;6.814;2024-03-22T10:22:47;17.60;98.20
4374;DHT22;2201;51.100;6.814;2024-03-22T10:25:16;17.50;98.20
4374;DHT22;2201;51.100;6.814;2024-03-22T10:27:42;17.50;98.20
4374;DHT22;2201;51.100;6.814;2024-03-22T10:30:10;17.50;98.20
4374;DHT22;2201;51.100;6.814;2024-03-22T10:32:36;17.50;98.20
4374;DHT22;2201;51.100;6.814;2024-03-22T10:35:03;17.50;98.20
4374;DHT22;2201;51.100;6.814;2024-03-22T10:37:32;17.60;98.20
4374;DHT22;2201;51.100;6.814;2024-03-22T10:40:01;17.70;98.20
4374;DHT22;2201;51.100;6.814;2024-03-22T10:42:34;17.70;98.20
4374;DHT22;2201;51.100;6.814;2024-03-22T10:45:01;17.80;98.20
4374;DHT22;2201;51.100;6.814;2024-03-22T10:47:33;17.80;98.20
4374;DHT22;2201;51.100;6.814;2024-03-22T10:50:04;17.80;98.20
4374;DHT22;2201;51.100;6.814;2024-03-22T10:52:33;17.80;98.20
4374;DHT22;2201;51.100;6.814;2024-03-22T10:55:02;17.70;98.20
4374;DHT22;2201;51.100;6.814;2024-03-22T10:57:30;17.70;98.20
4374;DHT22;2201;51.100;6.814;2024-03-22T10:59:58;17.60;98.20
4374;DHT22;2201;51.100;6.814;2024-03-22T11:02:27;17.60;98.20
4374;DHT22;2201;51.100;6.814;2024-03-22T11:04:57;17.50;98.20
4374;DHT22;2201;51.100;6.814;2024-03-22T11:07:23;17.50;98.20
4374;DHT22;2201;51.100;6.814;2024-03-22T11:09:56;17.40;98.20
4374;DHT22;2201;51.100;6.814;2024-03-22T11:12:24;17.40;98.20
4374;DHT22;2201;51.100;6.814;2024-03-22T11:14:53;17.20;98.20
4374;DHT22;2201;51.100;6.814;2024-03-22T11:17:20;17.10;98.20
4374;DHT22;2201;51.100;6.814;2024-03-22T11:19:50;17.10;98.20
4374;DHT22;2201;51.100;6.814;2024-03-22T11:22:16;17.00;98.20
4374;DHT22;2201;51.100;6.814;2024-03-22T11:24:44;17.00;98.20
4374;DHT22;2201;51.100;6.814;2024-03-22T11:27:25;17.10;98.20
4374;DHT22;2201;51.100;6.814;2024-03-22T11:29:52;17.00;98.20
4374;DHT22;2201;51.100;6.814;2024-03-22T11:32:22;17.00;98.20
4374;DHT22;2201;51.100;6.814;2024-03-22T11:34:50;17.10;98.20
4374;DHT22;2201;51.100;6.814;2024-03-22T11:37:16;17.00;98.20
4374;DHT22;2201;51.100;6.814;2024-03-22T11:39:43;17.10;98.20
4374;DHT22;2201;51.100;6.814;2024-03-22T11:42:10;17.30;98.20
4374;DHT22;2201;51.100;6.814;2024-03-22T11:44:38;17.40;98.20
4374;DHT22;2201;51.100;6.814;2024-03-22T11:47:06;17.50;98.20
4374;DHT22;2201;51.100;6.814;2024-03-22T11:49:35;17.60;98.20
4374;DHT22;2201;51.100;6.814;2024-03-22T11:52:02;17.70;98.20
4374;DHT22;2201;51.100;6.814;2024-03-22T11:54:28;17.70;98.20
4374;DHT22;2201;51.100;6.814;2024-03-22T11:56:56;17.70;98.20
4374;DHT22;2201;51.100;6.814;2024-03-22T11:59:22;17.70;98.20
4374;DHT22;2201;51.100;6.814;2024-03-22T12:01:49;17.80;98.20
4374;DHT22;2201;51.100;6.814;2024-03-22T12:04:19;17.90;98.20
4374;DHT22;2201;51.100;6.814;2024-03-22T12:06:47;17.90;98.20
4374;DHT22;2201;51.100;6.814;2024-03-22T12:09:14;18.00;98.20
4374;DHT22;2201;51.100;6.814;2024-03-22T12:11:41;18.00;98.20
4374;DHT22;2201;51.100;6.814;2024-03-22T12:14:07;18.10;98.20
4374;DHT22;2201;51.100;6.814;2024-03-22T12:16:34;18.00;97.30
4374;DHT22;2201;51.100;6.814;2024-03-22T12:19:02;18.00;97.20
4374;DHT22;2201;51.100;6.814;2024-03-22T12:21:29;18.00;96.90
4374;DHT22;2201;51.100;6.814;2024-03-22T12:23:57;18.00;97.00
4374;DHT22;2201;51.100;6.814;2024-03-22T12:26:24;17.90;96.50
4374;DHT22;2201;51.100;6.814;2024-03-22T12:28:50;17.90;96.80
4374;DHT22;2201;51.100;6.814;2024-03-22T12:31:17;17.80;96.60
4374;DHT22;2201;51.100;6.814;2024-03-22T12:33:44;17.90;97.20
4374;DHT22;2201;51.100;6.814;2024-03-22T12:36:11;17.90;97.50
4374;DHT22;2201;51.100;6.814;2024-03-22T12:38:37;18.00;97.10
4374;DHT22;2201;51.100;6.814;2024-03-22T12:41:07;18.10;97.30
4374;DHT22;2201;51.100;6.814;2024-03-22T12:43:33;18.10;97.50
4374;DHT22;2201;51.100;6.814;2024-03-22T12:46:00;18.00;97.70
4374;DHT22;2201;51.100;6.814;2024-03-22T12:48:28;18.00;98.20
4374;DHT22;2201;51.100;6.814;2024-03-22T12:50:55;18.00;98.20
4374;DHT22;2201;51.100;6.814;2024-03-22T12:53:22;18.00;98.20
4374;DHT22;2201;51.100;6.814;2024-03-22T12:55:49;18.10;98.20
4374;DHT22;2201;51.100;6.814;2024-03-22T12:58:16;18.10;98.20
4374;DHT22;2201;51.100;6.814;2024-03-22T13:00:44;18.10;98.20
4374;DHT22;2201;51.100;6.814;2024-03-22T13:03:10;18.10;98.20
4374;DHT22;2201;51.100;6.814;2024-03-22T13:05:39;18.10;98.20
4374;DHT22;2201;51.100;6.814;2024-03-22T13:08:05;18.00;96.40
4374;DHT22;2201;51.100;6.814;2024-03-22T13:10:37;17.90;97.20
4374;DHT22;2201;51.100;6.814;2024-03-22T13:13:08;17.80;97.60
4374;DHT22;2201;51.100;6.814;2024-03-22T13:15:37;17.80;97.30
4374;DHT22;2201;51.100;6.814;2024-03-22T13:18:06;17.80;97.90
4374;DHT22;2201;51.100;6.814;2024-03-22T13:20:39;17.80;98.20
4374;DHT22;2201;51.100;6.814;2024-03-22T13:23:08;17.90;98.10
4374;DHT22;2201;51.100;6.814;2024-03-22T13:25:45;17.90;98.10
4374;DHT22;2201;51.100;6.814;2024-03-22T13:28:14;18.00;97.90
4374;DHT22;2201;51.100;6.814;2024-03-22T13:30:59;18.00;97.90
4374;DHT22;2201;51.100;6.814;2024-03-22T13:33:25;18.10;98.20
4374;DHT22;2201;51.100;6.814;2024-03-22T13:35:52;18.10;98.00
4374;DHT22;2201;51.100;6.814;2024-03-22T13:38:19;18.10;98.20
4374;DHT22;2201;51.100;6.814;2024-03-22T13:40:53;18.00;98.20
4374;DHT22;2201;51.100;6.814;2024-03-22T13:43:19;17.90;98.20
4374;DHT22;2201;51.100;6.814;2024-03-22T13:45:50;17.70;98.20
4374;DHT22;2201;51.100;6.814;2024-03-22T13:48:18;17.50;98.20
4374;DHT22;2201;51.100;6.814;2024-03-22T13:50:51;17.30;98.20
4374;DHT22;2201;51.100;6.814;2024-03-22T13:53:17;17.20;98.20
4374;DHT22;2201;51.100;6.814;2024-03-22T13:55:50;17.00;98.20
4374;DHT22;2201;51.100;6.814;2024-03-22T13:58:32;16.80;98.20
4374;DHT22;2201;51.100;6.814;2024-03-22T14:01:00;16.70;98.20
4374;DHT22;2201;51.100;6.814;2024-03-22T14:03:28;16.70;98.20
4374;DHT22;2201;51.100;6.814;2024-03-22T14:05:57;16.60;98.20
4374;DHT22;2201;51.100;6.814;2024-03-22T14:08:23;16.60;98.20
4374;DHT22;2201;51.100;6.814;2024-03-22T14:10:50;16.50;98.20
4374;DHT22;2201;51.100;6.814;2024-03-22T14:13:16;16.50;98.20
4374;DHT22;2201;51.100;6.814;2024-03-22T14:15:45;16.50;98.20
4374;DHT22;2201;51.100;6.814;2024-03-22T14:18:14;16.40;98.20
4374;DHT22;2201;51.100;6.814;2024-03-22T14:21:02;16.30;98.20
4374;DHT22;2201;51.100;6.814;2024-03-22T14:23:29;16.20;98.20
4374;DHT22;2201;51.100;6.814;2024-03-22T14:25:56;16.20;98.20
4374;DHT22;2201;51.100;6.814;2024-03-22T14:28:22;16.20;98.20
4374;DHT22;2201;51.100;6.814;2024-03-22T14:30:51;16.10;98.20
4374;DHT22;2201;51.100;6.814;2024-03-22T14:33:17;16.10;98.20
4374;DHT22;2201;51.100;6.814;2024-03-22T14:35:45;16.10;98.20
4374;DHT22;2201;51.100;6.814;2024-03-22T14:38:11;16.00;98.20
4374;DHT22;2201;51.100;6.814;2024-03-22T14:40:38;16.00;98.20
4374;DHT22;2201;51.100;6.814;2024-03-22T14:43:04;16.00;98.20
4374;DHT22;2201;51.100;6.814;2024-03-22T14:45:31;15.90;98.20
4374;DHT22;2201;51.100;6.814;2024-03-22T14:47:57;15.80;98.20
4374;DHT22;2201;51.100;6.814;2024-03-22T14:50:24;15.80;98.20
4374;DHT22;2201;51.100;6.814;2024-03-22T14:52:51;15.80;98.20
4374;DHT22;2201;51.100;6.814;2024-03-22T14:55:18;15.80;98.20
4374;DHT22;2201;51.100;6.814;2024-03-22T14:57:44;15.80;98.20
4374;DHT22;2201;51.100;6.814;2024-03-22T15:00:12;15.70;98.20
4374;DHT22;2201;51.100;6.814;2024-03-22T15:02:39;15.70;98.20
4374;DHT22;2201;51.100;6.814;2024-03-22T15:05:06;15.60;98.20
4374;DHT22;2201;51.100;6.814;2024-03-22T15:07:32;15.50;98.20
4374;DHT22;2201;51.100;6.814;2024-03-22T15:10:01;15.50;98.20
4374;DHT22;2201;51.100;6.814;2024-03-22T15:12:27;15.40;98.20
4374;DHT22;2201;51.100;6.814;2024-03-22T15:14:53;15.40;98.20
4374;DHT22;2201;51.100;6.814;2024-03-22T15:17:19;15.30;98.20
4374;DHT22;2201;51.100;6.814;2024-03-22T15:19:48;15.20;98.20
4374;DHT22;2201;51.100;6.814;2024-03-22T15:22:14;15.10;98.20
4374;DHT22;2201;51.100;6.814;2024-03-22T15:24:44;15.00;98.20
4374;DHT22;2201;51.100;6.814;2024-03-22T15:27:11;14.90;98.20
4374;DHT22;2201;51.100;6.814;2024-03-22T15:29:38;14.80;98.20
4374;DHT22;2201;51.100;6.814;2024-03-22T15:32:07;14.70;98.20
4374;DHT22;2201;51.100;6.814;2024-03-22T15:34:34;14.70;98.20
4374;DHT22;2201;51.100;6.814;2024-03-22T15:36:59;14.50;98.20
4374;DHT22;2201;51.100;6.814;2024-03-22T15:39:27;14.50;98.20
4374;DHT22;2201;51.100;6.814;2024-03-22T15:41:52;14.50;98.20
4374;DHT22;2201;51.100;6.814;2024-03-22T15:44:20;14.40;98.20
4374;DHT22;2201;51.100;6.814;2024-03-22T15:46:47;14.30;98.20
4374;DHT22;2201;51.100;6.814;2024-03-22T15:49:14;14.30;98.20
4374;DHT22;2201;51.100;6.814;2024-03-22T15:51:39;14.20;98.20
4374;DHT22;2201;51.100;6.814;2024-03-22T15:54:07;14.00;98.20
4374;DHT22;2201;51.100;6.814;2024-03-22T15:56:33;13.80;98.20
4374;DHT22;2201;51.100;6.814;2024-03-22T15:59:00;13.70;98.20
4374;DHT22;2201;51.100;6.814;2024-03-22T16:01:27;13.70;98.20